Aviation Digital Data Service (ADDS)

Output produced by METARs form (2217 UTC 01 September 2015)
found at http://aviationweather.gov/adds/metars/
 
KDAN 011746Z 0118/0218 00000KT P6SM FEW050 
     FM020800 00000KT 4SM BR SCT250 
     FM021000 00000KT 2SM BR SCT250 
     FM021400 27003KT P6SM SCT050